THY8RW LTAR-LTFM
Flight info
| Callsign | THY8RW |
|---|---|
| Flight time | 1h 16m |
| Altitude | 36000 |
| Route | OLPOT UL615 TIMOP UT97 KANQO |
| Aircraft | A320/M-SDE3FGHIRWY/LB1 |
Departure
| Time | 2026-04-26 21:10 |
|---|---|
| Airport | Sivas Nuri Demirağ Airport (LTAR) |
Arrival
| Time | 2026-04-26 22:26 |
|---|---|
| Airport | İstanbul Airport (LTFM) |
| Time | Latitude | Longitude | Altitude | Speed | Heading |
|---|---|---|---|---|---|
| 2026-04-26 20:33 | 39.80214 | 36.89400 | 5243 ft | 0 kts | 289° |
| 2026-04-26 20:59 | 39.80209 | 36.89422 | 5242 ft | 4 kts | 284° |
| 2026-04-26 20:59 | 39.80204 | 36.89455 | 5242 ft | 4 kts | 262° |
| 2026-04-26 20:59 | 39.80213 | 36.89480 | 5242 ft | 3 kts | 200° |
| 2026-04-26 21:00 | 39.80216 | 36.89481 | 5242 ft | 0 kts | 198° |
| 2026-04-26 21:02 | 39.80215 | 36.89481 | 5242 ft | 0 kts | 198° |
| 2026-04-26 21:02 | 39.80203 | 36.89476 | 5242 ft | 3 kts | 198° |
| 2026-04-26 21:03 | 39.80170 | 36.89467 | 5242 ft | 6 kts | 178° |
| 2026-04-26 21:03 | 39.80142 | 36.89512 | 5243 ft | 8 kts | 111° |
| 2026-04-26 21:03 | 39.80133 | 36.89548 | 5247 ft | 0 kts | 108° |
| 2026-04-26 21:03 | 39.80132 | 36.89553 | 5247 ft | 3 kts | 108° |
| 2026-04-26 21:04 | 39.80117 | 36.89611 | 5248 ft | 8 kts | 108° |
| 2026-04-26 21:04 | 39.80094 | 36.89699 | 5247 ft | 12 kts | 109° |
| 2026-04-26 21:04 | 39.80105 | 36.89797 | 5244 ft | 13 kts | 47° |
| 2026-04-26 21:04 | 39.80193 | 36.89848 | 5245 ft | 15 kts | 19° |
| 2026-04-26 21:05 | 39.80298 | 36.89891 | 5245 ft | 17 kts | 17° |
| 2026-04-26 21:05 | 39.80423 | 36.89946 | 5243 ft | 20 kts | 18° |
| 2026-04-26 21:05 | 39.80562 | 36.90003 | 5244 ft | 22 kts | 17° |
| 2026-04-26 21:05 | 39.80715 | 36.90066 | 5246 ft | 23 kts | 19° |
| 2026-04-26 21:06 | 39.80867 | 36.90130 | 5250 ft | 24 kts | 18° |
| 2026-04-26 21:06 | 39.81031 | 36.90201 | 5249 ft | 26 kts | 18° |
| 2026-04-26 21:06 | 39.81214 | 36.90275 | 5244 ft | 29 kts | 17° |
| 2026-04-26 21:06 | 39.81403 | 36.90355 | 5243 ft | 27 kts | 18° |
| 2026-04-26 21:07 | 39.81591 | 36.90434 | 5240 ft | 28 kts | 18° |
| 2026-04-26 21:07 | 39.81779 | 36.90513 | 5241 ft | 29 kts | 17° |
| 2026-04-26 21:07 | 39.81972 | 36.90593 | 5246 ft | 29 kts | 18° |
| 2026-04-26 21:07 | 39.82170 | 36.90677 | 5245 ft | 31 kts | 18° |
| 2026-04-26 21:08 | 39.82359 | 36.90754 | 5243 ft | 30 kts | 18° |
| 2026-04-26 21:08 | 39.82553 | 36.90836 | 5245 ft | 29 kts | 18° |
| 2026-04-26 21:08 | 39.82737 | 36.90915 | 5245 ft | 28 kts | 18° |
| 2026-04-26 21:08 | 39.82873 | 36.90973 | 5247 ft | 17 kts | 18° |
| 2026-04-26 21:09 | 39.82954 | 36.91047 | 5247 ft | 13 kts | 47° |
| 2026-04-26 21:09 | 39.83001 | 36.91032 | 5248 ft | 8 kts | 258° |
| 2026-04-26 21:09 | 39.82979 | 36.91016 | 5248 ft | 1 kts | 198° |
| 2026-04-26 21:09 | 39.82927 | 36.90993 | 5247 ft | 28 kts | 198° |
| 2026-04-26 21:10 | 39.82501 | 36.90818 | 5245 ft | 97 kts | 198° |
| 2026-04-26 21:10 | 39.81679 | 36.90470 | 5241 ft | 149 kts | 198° |
| 2026-04-26 21:10 | 39.80564 | 36.90016 | 5413 ft | 176 kts | 195° |
| 2026-04-26 21:10 | 39.79398 | 36.89533 | 6180 ft | 172 kts | 195° |
| 2026-04-26 21:11 | 39.78260 | 36.89056 | 6860 ft | 173 kts | 195° |
| 2026-04-26 21:11 | 39.77086 | 36.88565 | 7222 ft | 188 kts | 196° |
| 2026-04-26 21:11 | 39.75762 | 36.88011 | 7417 ft | 212 kts | 196° |
| 2026-04-26 21:11 | 39.74256 | 36.87383 | 7596 ft | 238 kts | 197° |
| 2026-04-26 21:12 | 39.72602 | 36.86694 | 7921 ft | 263 kts | 197° |
| 2026-04-26 21:12 | 39.70789 | 36.85934 | 8399 ft | 281 kts | 197° |
| 2026-04-26 21:12 | 39.68925 | 36.85093 | 9142 ft | 286 kts | 206° |
| 2026-04-26 21:12 | 39.67855 | 36.84100 | 9602 ft | 289 kts | 228° |
| 2026-04-26 21:13 | 39.66940 | 36.81832 | 10407 ft | 293 kts | 259° |
| 2026-04-26 21:13 | 39.66995 | 36.79234 | 10826 ft | 311 kts | 284° |
| 2026-04-26 21:13 | 39.67803 | 36.76506 | 11066 ft | 335 kts | 295° |
| 2026-04-26 21:13 | 39.68883 | 36.73820 | 11600 ft | 346 kts | 297° |
| 2026-04-26 21:14 | 39.70009 | 36.71091 | 12332 ft | 350 kts | 298° |
| 2026-04-26 21:14 | 39.71294 | 36.68578 | 13068 ft | 354 kts | 305° |
| 2026-04-26 21:14 | 39.72731 | 36.65887 | 13839 ft | 356 kts | 301° |
| 2026-04-26 21:14 | 39.74026 | 36.63122 | 14590 ft | 360 kts | 299° |
| 2026-04-26 21:15 | 39.75267 | 36.60282 | 15327 ft | 363 kts | 297° |
| 2026-04-26 21:15 | 39.76502 | 36.57405 | 16004 ft | 366 kts | 298° |
| 2026-04-26 21:15 | 39.77755 | 36.54516 | 16639 ft | 369 kts | 298° |
| 2026-04-26 21:15 | 39.79043 | 36.51607 | 17267 ft | 373 kts | 298° |
| 2026-04-26 21:16 | 39.80380 | 36.48639 | 17914 ft | 376 kts | 299° |
| 2026-04-26 21:16 | 39.81720 | 36.45705 | 18538 ft | 380 kts | 299° |
| 2026-04-26 21:16 | 39.83060 | 36.42776 | 19143 ft | 383 kts | 299° |
| 2026-04-26 21:16 | 39.84445 | 36.39742 | 19756 ft | 387 kts | 299° |
| 2026-04-26 21:17 | 39.85716 | 36.36629 | 20388 ft | 390 kts | 291° |
| 2026-04-26 21:17 | 39.86550 | 36.33274 | 20992 ft | 391 kts | 282° |
| 2026-04-26 21:17 | 39.87245 | 36.29838 | 21579 ft | 395 kts | 285° |
| 2026-04-26 21:17 | 39.88118 | 36.26435 | 22143 ft | 398 kts | 288° |
| 2026-04-26 21:18 | 39.89098 | 36.23052 | 22701 ft | 401 kts | 290° |
| 2026-04-26 21:18 | 39.90119 | 36.19651 | 23241 ft | 405 kts | 290° |
| 2026-04-26 21:18 | 39.91135 | 36.16221 | 23774 ft | 408 kts | 289° |
| 2026-04-26 21:18 | 39.92133 | 36.12741 | 24303 ft | 411 kts | 289° |
| 2026-04-26 21:19 | 39.93110 | 36.09217 | 24828 ft | 414 kts | 288° |
| 2026-04-26 21:19 | 39.94070 | 36.05668 | 25339 ft | 417 kts | 287° |
| 2026-04-26 21:19 | 39.95027 | 36.02090 | 25863 ft | 419 kts | 287° |
| 2026-04-26 21:19 | 39.95984 | 35.98498 | 26341 ft | 422 kts | 287° |
| 2026-04-26 21:20 | 39.96949 | 35.94872 | 26831 ft | 425 kts | 287° |
| 2026-04-26 21:20 | 39.97923 | 35.91221 | 27305 ft | 427 kts | 287° |
| 2026-04-26 21:20 | 39.98901 | 35.87558 | 27768 ft | 429 kts | 287° |
| 2026-04-26 21:20 | 39.99888 | 35.83865 | 28203 ft | 431 kts | 287° |
| 2026-04-26 21:21 | 40.00877 | 35.80179 | 28659 ft | 432 kts | 286° |
| 2026-04-26 21:21 | 40.01875 | 35.76480 | 29212 ft | 431 kts | 286° |
| 2026-04-26 21:21 | 40.02862 | 35.72804 | 29763 ft | 429 kts | 286° |
| 2026-04-26 21:21 | 40.03842 | 35.69132 | 30326 ft | 427 kts | 286° |
| 2026-04-26 21:22 | 40.04813 | 35.65486 | 30863 ft | 425 kts | 286° |
| 2026-04-26 21:22 | 40.05779 | 35.61847 | 31393 ft | 423 kts | 285° |
| 2026-04-26 21:22 | 40.06739 | 35.58233 | 31903 ft | 421 kts | 285° |
| 2026-04-26 21:23 | 40.08651 | 35.51033 | 32896 ft | 418 kts | 285° |
| 2026-04-26 21:23 | 40.09602 | 35.47451 | 33364 ft | 417 kts | 285° |
| 2026-04-26 21:23 | 40.10544 | 35.43876 | 33818 ft | 416 kts | 284° |
| 2026-04-26 21:23 | 40.11481 | 35.40307 | 34277 ft | 414 kts | 284° |
| 2026-04-26 21:24 | 40.12426 | 35.36707 | 34736 ft | 413 kts | 285° |
| 2026-04-26 21:24 | 40.13347 | 35.33200 | 35109 ft | 414 kts | 285° |
| 2026-04-26 21:24 | 40.14293 | 35.29597 | 35364 ft | 414 kts | 285° |
| 2026-04-26 21:24 | 40.15229 | 35.26030 | 35612 ft | 415 kts | 286° |
| 2026-04-26 21:25 | 40.16163 | 35.22458 | 35863 ft | 415 kts | 286° |
| 2026-04-26 21:25 | 40.17097 | 35.18888 | 35992 ft | 416 kts | 286° |
| 2026-04-26 21:25 | 40.18986 | 35.11611 | 36020 ft | 426 kts | 286° |
| 2026-04-26 21:26 | 40.20886 | 35.04237 | 36017 ft | 428 kts | 286° |
| 2026-04-26 21:26 | 40.22766 | 34.96837 | 36017 ft | 430 kts | 286° |
| 2026-04-26 21:27 | 40.24660 | 34.89420 | 36015 ft | 430 kts | 287° |
| 2026-04-26 21:27 | 40.26562 | 34.81973 | 36015 ft | 431 kts | 287° |
| 2026-04-26 21:28 | 40.28455 | 34.74516 | 36012 ft | 431 kts | 287° |
| 2026-04-26 21:28 | 40.30334 | 34.67046 | 36013 ft | 432 kts | 287° |
| 2026-04-26 21:29 | 40.32227 | 34.59558 | 36003 ft | 433 kts | 287° |
| 2026-04-26 21:29 | 40.34118 | 34.52040 | 36003 ft | 434 kts | 287° |
| 2026-04-26 21:30 | 40.36002 | 34.44517 | 36009 ft | 435 kts | 287° |
| 2026-04-26 21:30 | 40.37888 | 34.36969 | 36011 ft | 435 kts | 287° |
| 2026-04-26 21:31 | 40.39772 | 34.29416 | 36014 ft | 436 kts | 287° |
| 2026-04-26 21:31 | 40.41663 | 34.21799 | 36018 ft | 437 kts | 287° |
| 2026-04-26 21:32 | 40.43536 | 34.14210 | 36016 ft | 437 kts | 287° |
| 2026-04-26 21:32 | 40.45404 | 34.06610 | 36020 ft | 438 kts | 287° |
| 2026-04-26 21:33 | 40.47274 | 33.98995 | 36027 ft | 438 kts | 287° |
| 2026-04-26 21:33 | 40.49145 | 33.91363 | 36026 ft | 439 kts | 287° |
| 2026-04-26 21:34 | 40.51005 | 33.83727 | 36029 ft | 439 kts | 287° |
| 2026-04-26 21:34 | 40.52869 | 33.76087 | 36032 ft | 439 kts | 287° |
| 2026-04-26 21:35 | 40.54731 | 33.68449 | 36027 ft | 438 kts | 287° |
| 2026-04-26 21:35 | 40.56580 | 33.60820 | 36034 ft | 438 kts | 287° |
| 2026-04-26 21:36 | 40.58108 | 33.54481 | 36041 ft | 437 kts | 287° |
| 2026-04-26 21:36 | 40.60242 | 33.45568 | 36052 ft | 437 kts | 287° |
| 2026-04-26 21:37 | 40.62059 | 33.37953 | 36042 ft | 435 kts | 287° |
| 2026-04-26 21:37 | 40.63877 | 33.30353 | 36035 ft | 435 kts | 287° |
| 2026-04-26 21:38 | 40.65708 | 33.22689 | 36040 ft | 436 kts | 287° |
| 2026-04-26 21:38 | 40.67504 | 33.15130 | 36046 ft | 435 kts | 287° |
| 2026-04-26 21:39 | 40.69304 | 33.07471 | 36046 ft | 435 kts | 287° |
| 2026-04-26 21:39 | 40.71089 | 32.99862 | 36044 ft | 435 kts | 287° |
| 2026-04-26 21:40 | 40.72880 | 32.92248 | 36046 ft | 434 kts | 287° |
| 2026-04-26 21:40 | 40.74659 | 32.84655 | 36047 ft | 434 kts | 287° |
| 2026-04-26 21:41 | 40.76427 | 32.77055 | 36036 ft | 434 kts | 287° |
| 2026-04-26 21:41 | 40.78200 | 32.69437 | 36049 ft | 434 kts | 287° |
| 2026-04-26 21:42 | 40.79974 | 32.61824 | 36041 ft | 434 kts | 287° |
| 2026-04-26 21:42 | 40.81731 | 32.54209 | 36041 ft | 434 kts | 287° |
| 2026-04-26 21:43 | 40.83480 | 32.46589 | 36050 ft | 433 kts | 287° |
| 2026-04-26 21:43 | 40.85229 | 32.38970 | 36039 ft | 433 kts | 287° |
| 2026-04-26 21:44 | 40.86970 | 32.31343 | 36042 ft | 434 kts | 287° |
| 2026-04-26 21:44 | 40.88713 | 32.23711 | 36046 ft | 434 kts | 287° |
| 2026-04-26 21:45 | 40.90455 | 32.16073 | 36046 ft | 434 kts | 287° |
| 2026-04-26 21:45 | 40.92182 | 32.08437 | 36046 ft | 433 kts | 287° |
| 2026-04-26 21:46 | 40.93892 | 32.00809 | 36052 ft | 433 kts | 287° |
| 2026-04-26 21:46 | 40.95320 | 31.94415 | 36042 ft | 433 kts | 287° |
| 2026-04-26 21:47 | 40.97036 | 31.86773 | 36046 ft | 433 kts | 287° |
| 2026-04-26 21:47 | 40.98750 | 31.79131 | 36051 ft | 433 kts | 287° |
| 2026-04-26 21:48 | 41.00441 | 31.71490 | 36049 ft | 432 kts | 287° |
| 2026-04-26 21:48 | 41.02130 | 31.63846 | 36044 ft | 432 kts | 287° |
| 2026-04-26 21:49 | 41.03825 | 31.56218 | 36045 ft | 432 kts | 287° |
| 2026-04-26 21:49 | 41.05513 | 31.48583 | 36050 ft | 432 kts | 287° |
| 2026-04-26 21:50 | 41.07180 | 31.40937 | 36047 ft | 432 kts | 287° |
| 2026-04-26 21:50 | 41.08848 | 31.33289 | 36054 ft | 432 kts | 287° |
| 2026-04-26 21:51 | 41.10523 | 31.25596 | 36045 ft | 432 kts | 287° |
| 2026-04-26 21:51 | 41.11357 | 31.21756 | 35863 ft | 433 kts | 287° |
| 2026-04-26 21:51 | 41.12189 | 31.17921 | 35613 ft | 433 kts | 287° |
| 2026-04-26 21:52 | 41.13013 | 31.14130 | 35367 ft | 433 kts | 287° |
| 2026-04-26 21:52 | 41.13854 | 31.10243 | 35114 ft | 434 kts | 287° |
| 2026-04-26 21:52 | 41.14675 | 31.06438 | 34867 ft | 434 kts | 287° |
| 2026-04-26 21:52 | 41.15510 | 31.02541 | 34614 ft | 434 kts | 287° |
| 2026-04-26 21:53 | 41.16336 | 30.98682 | 34220 ft | 435 kts | 287° |
| 2026-04-26 21:53 | 41.17171 | 30.94779 | 33347 ft | 443 kts | 287° |
| 2026-04-26 21:53 | 41.18020 | 30.90831 | 32504 ft | 448 kts | 287° |
| 2026-04-26 21:53 | 41.18876 | 30.86846 | 31933 ft | 447 kts | 287° |
| 2026-04-26 21:54 | 41.19721 | 30.82890 | 31384 ft | 445 kts | 287° |
| 2026-04-26 21:54 | 41.20558 | 30.78938 | 30824 ft | 443 kts | 287° |
| 2026-04-26 21:54 | 41.21387 | 30.75011 | 30270 ft | 441 kts | 287° |
| 2026-04-26 21:54 | 41.22212 | 30.71102 | 29705 ft | 439 kts | 287° |
| 2026-04-26 21:55 | 41.23036 | 30.67198 | 29141 ft | 437 kts | 287° |
| 2026-04-26 21:55 | 41.23855 | 30.63328 | 28585 ft | 435 kts | 287° |
| 2026-04-26 21:55 | 41.24672 | 30.59466 | 28032 ft | 432 kts | 287° |
| 2026-04-26 21:55 | 41.25477 | 30.55645 | 27463 ft | 429 kts | 287° |
| 2026-04-26 21:56 | 41.26278 | 30.51833 | 26930 ft | 425 kts | 287° |
| 2026-04-26 21:56 | 41.27070 | 30.48076 | 26391 ft | 421 kts | 287° |
| 2026-04-26 21:56 | 41.27853 | 30.44342 | 25869 ft | 417 kts | 287° |
| 2026-04-26 21:56 | 41.28624 | 30.40646 | 25353 ft | 412 kts | 286° |
| 2026-04-26 21:57 | 41.29382 | 30.36997 | 24864 ft | 408 kts | 286° |
| 2026-04-26 21:57 | 41.30136 | 30.33374 | 24385 ft | 404 kts | 286° |
| 2026-04-26 21:57 | 41.30887 | 30.29806 | 23947 ft | 398 kts | 288° |
| 2026-04-26 21:57 | 41.32009 | 30.26516 | 23801 ft | 386 kts | 303° |
| 2026-04-26 21:58 | 41.33727 | 30.23811 | 23549 ft | 382 kts | 317° |
| 2026-04-26 21:58 | 41.35710 | 30.21469 | 23302 ft | 381 kts | 318° |
| 2026-04-26 21:58 | 41.37696 | 30.19146 | 23052 ft | 379 kts | 318° |
| 2026-04-26 21:58 | 41.39672 | 30.16839 | 22799 ft | 377 kts | 318° |
| 2026-04-26 21:59 | 41.41640 | 30.14542 | 22550 ft | 375 kts | 318° |
| 2026-04-26 21:59 | 41.43600 | 30.12250 | 22300 ft | 374 kts | 318° |
| 2026-04-26 21:59 | 41.45545 | 30.09965 | 22048 ft | 372 kts | 318° |
| 2026-04-26 21:59 | 41.47485 | 30.07685 | 21798 ft | 370 kts | 318° |
| 2026-04-26 22:00 | 41.49431 | 30.05394 | 21544 ft | 368 kts | 318° |
| 2026-04-26 22:00 | 41.51349 | 30.03131 | 21298 ft | 367 kts | 318° |
| 2026-04-26 22:00 | 41.53248 | 30.00894 | 21044 ft | 362 kts | 318° |
| 2026-04-26 22:00 | 41.55136 | 29.98664 | 20792 ft | 363 kts | 318° |
| 2026-04-26 22:01 | 41.57027 | 29.96430 | 20544 ft | 362 kts | 318° |
| 2026-04-26 22:01 | 41.59045 | 29.94458 | 20294 ft | 361 kts | 332° |
| 2026-04-26 22:01 | 41.61434 | 29.93445 | 20043 ft | 363 kts | 351° |
| 2026-04-26 22:01 | 41.63952 | 29.93562 | 19792 ft | 367 kts | 10° |
| 2026-04-26 22:02 | 41.66336 | 29.94813 | 19542 ft | 371 kts | 29° |
| 2026-04-26 22:02 | 41.67693 | 29.96209 | 19371 ft | 375 kts | 42° |
| 2026-04-26 22:02 | 41.69575 | 30.00148 | 19079 ft | 383 kts | 69° |
| 2026-04-26 22:02 | 41.69989 | 30.03672 | 19055 ft | 388 kts | 90° |
| 2026-04-26 22:03 | 41.69476 | 30.07219 | 19065 ft | 391 kts | 111° |
| 2026-04-26 22:03 | 41.68061 | 30.10307 | 19071 ft | 391 kts | 134° |
| 2026-04-26 22:03 | 41.65942 | 30.12545 | 19087 ft | 389 kts | 151° |
| 2026-04-26 22:03 | 41.63587 | 30.14330 | 19081 ft | 389 kts | 153° |
| 2026-04-26 22:04 | 41.61181 | 30.16009 | 19082 ft | 390 kts | 155° |
| 2026-04-26 22:04 | 41.58756 | 30.17636 | 19074 ft | 389 kts | 155° |
| 2026-04-26 22:04 | 41.56337 | 30.19247 | 19081 ft | 389 kts | 155° |
| 2026-04-26 22:04 | 41.53842 | 30.20576 | 19064 ft | 385 kts | 170° |
| 2026-04-26 22:05 | 41.51201 | 30.20743 | 19071 ft | 379 kts | 191° |
| 2026-04-26 22:05 | 41.48721 | 30.19723 | 19078 ft | 372 kts | 211° |
| 2026-04-26 22:05 | 41.46682 | 30.17686 | 19077 ft | 365 kts | 230° |
| 2026-04-26 22:05 | 41.45293 | 30.14903 | 19078 ft | 358 kts | 249° |
| 2026-04-26 22:06 | 41.44676 | 30.11727 | 19073 ft | 354 kts | 268° |
| 2026-04-26 22:06 | 41.44838 | 30.08469 | 19077 ft | 352 kts | 282° |
| 2026-04-26 22:06 | 41.45128 | 30.05276 | 19065 ft | 355 kts | 268° |
| 2026-04-26 22:06 | 41.44430 | 30.02079 | 19068 ft | 361 kts | 242° |
| 2026-04-26 22:07 | 41.42904 | 29.99399 | 18990 ft | 365 kts | 233° |
| 2026-04-26 22:07 | 41.41324 | 29.96772 | 18734 ft | 363 kts | 235° |
| 2026-04-26 22:07 | 41.39807 | 29.94091 | 18484 ft | 361 kts | 237° |
| 2026-04-26 22:07 | 41.38347 | 29.91373 | 18231 ft | 359 kts | 238° |
| 2026-04-26 22:08 | 41.36912 | 29.88599 | 17977 ft | 357 kts | 238° |
| 2026-04-26 22:08 | 41.35525 | 29.85865 | 17730 ft | 356 kts | 239° |
| 2026-04-26 22:08 | 41.34163 | 29.83172 | 17479 ft | 354 kts | 239° |
| 2026-04-26 22:08 | 41.32781 | 29.80460 | 17219 ft | 353 kts | 238° |
| 2026-04-26 22:09 | 41.31383 | 29.77742 | 16963 ft | 351 kts | 238° |
| 2026-04-26 22:09 | 41.29995 | 29.75066 | 16726 ft | 351 kts | 238° |
| 2026-04-26 22:09 | 41.28613 | 29.72400 | 16475 ft | 349 kts | 238° |
| 2026-04-26 22:09 | 41.27240 | 29.69750 | 16224 ft | 348 kts | 238° |
| 2026-04-26 22:10 | 41.25867 | 29.67109 | 15974 ft | 346 kts | 238° |
| 2026-04-26 22:10 | 41.24502 | 29.64487 | 15724 ft | 345 kts | 238° |
| 2026-04-26 22:10 | 41.23137 | 29.61862 | 15473 ft | 344 kts | 238° |
| 2026-04-26 22:10 | 41.21790 | 29.59272 | 15126 ft | 340 kts | 238° |
| 2026-04-26 22:11 | 41.20450 | 29.56693 | 14672 ft | 338 kts | 238° |
| 2026-04-26 22:11 | 41.19113 | 29.54124 | 14201 ft | 337 kts | 238° |
| 2026-04-26 22:11 | 41.17780 | 29.51572 | 13738 ft | 336 kts | 238° |
| 2026-04-26 22:11 | 41.16451 | 29.49025 | 13267 ft | 335 kts | 237° |
| 2026-04-26 22:12 | 41.15126 | 29.46486 | 12797 ft | 334 kts | 237° |
| 2026-04-26 22:12 | 41.13799 | 29.43953 | 12330 ft | 333 kts | 237° |
| 2026-04-26 22:12 | 41.12481 | 29.41436 | 11867 ft | 332 kts | 237° |
| 2026-04-26 22:12 | 41.11160 | 29.38920 | 11401 ft | 331 kts | 237° |
| 2026-04-26 22:13 | 41.09844 | 29.36417 | 10937 ft | 330 kts | 237° |
| 2026-04-26 22:13 | 41.08536 | 29.33923 | 10478 ft | 330 kts | 237° |
| 2026-04-26 22:13 | 41.07235 | 29.31448 | 10279 ft | 323 kts | 237° |
| 2026-04-26 22:13 | 41.05973 | 29.29050 | 10152 ft | 313 kts | 238° |
| 2026-04-26 22:14 | 41.04742 | 29.26711 | 10020 ft | 304 kts | 238° |
| 2026-04-26 22:14 | 41.03551 | 29.24445 | 9887 ft | 296 kts | 238° |
| 2026-04-26 22:14 | 41.02394 | 29.22237 | 9652 ft | 291 kts | 238° |
| 2026-04-26 22:14 | 41.01236 | 29.20028 | 9294 ft | 291 kts | 238° |
| 2026-04-26 22:15 | 41.00079 | 29.17834 | 8959 ft | 291 kts | 238° |
| 2026-04-26 22:15 | 40.98926 | 29.15649 | 8482 ft | 288 kts | 238° |
| 2026-04-26 22:15 | 40.97782 | 29.13482 | 7908 ft | 287 kts | 238° |
| 2026-04-26 22:15 | 40.96667 | 29.11375 | 7451 ft | 281 kts | 238° |
| 2026-04-26 22:16 | 40.95568 | 29.09307 | 6947 ft | 278 kts | 238° |
| 2026-04-26 22:16 | 40.94471 | 29.07233 | 6406 ft | 276 kts | 238° |
| 2026-04-26 22:16 | 40.93406 | 29.05222 | 5878 ft | 274 kts | 237° |
| 2026-04-26 22:16 | 40.92330 | 29.03162 | 5410 ft | 272 kts | 239° |
| 2026-04-26 22:17 | 40.91511 | 29.00932 | 5127 ft | 270 kts | 259° |
| 2026-04-26 22:17 | 40.91332 | 28.99336 | 4922 ft | 260 kts | 271° |
| 2026-04-26 22:17 | 40.91572 | 28.96178 | 4403 ft | 264 kts | 279° |
| 2026-04-26 22:17 | 40.91787 | 28.93768 | 4087 ft | 264 kts | 279° |
| 2026-04-26 22:18 | 40.91995 | 28.91403 | 3973 ft | 265 kts | 279° |
| 2026-04-26 22:18 | 40.92205 | 28.88978 | 3979 ft | 268 kts | 279° |
| 2026-04-26 22:18 | 40.92421 | 28.86523 | 3979 ft | 268 kts | 279° |
| 2026-04-26 22:18 | 40.92562 | 28.84910 | 3976 ft | 267 kts | 279° |
| 2026-04-26 22:19 | 40.92777 | 28.82472 | 3977 ft | 267 kts | 281° |
| 2026-04-26 22:19 | 40.93362 | 28.80178 | 3974 ft | 258 kts | 303° |
| 2026-04-26 22:19 | 40.94500 | 28.78475 | 3977 ft | 240 kts | 325° |
| 2026-04-26 22:19 | 40.95903 | 28.77331 | 3980 ft | 237 kts | 332° |
| 2026-04-26 22:20 | 40.97370 | 28.76376 | 3979 ft | 234 kts | 347° |
| 2026-04-26 22:20 | 40.98972 | 28.76169 | 3979 ft | 231 kts | 0° |
| 2026-04-26 22:20 | 41.00596 | 28.76150 | 3973 ft | 233 kts | 0° |
| 2026-04-26 22:20 | 41.02163 | 28.76126 | 3975 ft | 218 kts | 360° |
| 2026-04-26 22:21 | 41.03607 | 28.76098 | 3974 ft | 199 kts | 0° |
| 2026-04-26 22:21 | 41.04960 | 28.76075 | 3981 ft | 194 kts | 1° |
| 2026-04-26 22:21 | 41.06301 | 28.76048 | 3989 ft | 192 kts | 360° |
| 2026-04-26 22:21 | 41.07635 | 28.76020 | 3874 ft | 191 kts | 0° |
| 2026-04-26 22:22 | 41.08945 | 28.75992 | 3658 ft | 186 kts | 1° |
| 2026-04-26 22:22 | 41.10244 | 28.75970 | 3418 ft | 187 kts | 1° |
| 2026-04-26 22:22 | 41.11525 | 28.75948 | 3192 ft | 186 kts | 1° |
| 2026-04-26 22:22 | 41.12812 | 28.75924 | 2923 ft | 185 kts | 2° |
| 2026-04-26 22:23 | 41.14114 | 28.75901 | 2693 ft | 189 kts | 4° |
| 2026-04-26 22:23 | 41.15423 | 28.75873 | 2454 ft | 183 kts | 4° |
| 2026-04-26 22:23 | 41.16681 | 28.75850 | 2192 ft | 182 kts | 3° |
| 2026-04-26 22:23 | 41.17922 | 28.75826 | 1956 ft | 174 kts | 2° |
| 2026-04-26 22:24 | 41.19067 | 28.75807 | 1803 ft | 150 kts | 357° |
| 2026-04-26 22:24 | 41.20064 | 28.75790 | 1572 ft | 135 kts | 355° |
| 2026-04-26 22:24 | 41.20981 | 28.75771 | 1395 ft | 130 kts | 353° |
| 2026-04-26 22:24 | 41.21870 | 28.75751 | 1221 ft | 129 kts | 351° |
| 2026-04-26 22:25 | 41.22780 | 28.75734 | 1003 ft | 130 kts | 352° |
| 2026-04-26 22:25 | 41.23663 | 28.75723 | 814 ft | 128 kts | 353° |
| 2026-04-26 22:25 | 41.24571 | 28.75707 | 656 ft | 129 kts | 353° |
| 2026-04-26 22:25 | 41.25468 | 28.75683 | 488 ft | 128 kts | 355° |
| 2026-04-26 22:26 | 41.26369 | 28.75669 | 341 ft | 130 kts | 355° |
| 2026-04-26 22:26 | 41.27195 | 28.75646 | 297 ft | 99 kts | 360° |
| 2026-04-26 22:26 | 41.27713 | 28.75646 | 281 ft | 50 kts | 360° |
| 2026-04-26 22:26 | 41.27972 | 28.75622 | 269 ft | 29 kts | 343° |
| 2026-04-26 22:27 | 41.28087 | 28.75553 | 268 ft | 12 kts | 332° |
| 2026-04-26 22:27 | 41.28146 | 28.75506 | 266 ft | 9 kts | 322° |
| 2026-04-26 22:27 | 41.28171 | 28.75433 | 265 ft | 8 kts | 269° |
| 2026-04-26 22:27 | 41.28138 | 28.75370 | 266 ft | 8 kts | 211° |
| 2026-04-26 22:28 | 41.28085 | 28.75355 | 269 ft | 7 kts | 180° |
| 2026-04-26 22:28 | 41.28039 | 28.75355 | 271 ft | 6 kts | 179° |
| 2026-04-26 22:28 | 41.27999 | 28.75356 | 273 ft | 8 kts | 179° |
| 2026-04-26 22:28 | 41.27947 | 28.75356 | 276 ft | 7 kts | 179° |
| 2026-04-26 22:29 | 41.27903 | 28.75357 | 278 ft | 7 kts | 179° |
| 2026-04-26 22:29 | 41.27842 | 28.75357 | 281 ft | 10 kts | 180° |
| 2026-04-26 22:29 | 41.27780 | 28.75358 | 284 ft | 8 kts | 180° |
| 2026-04-26 22:29 | 41.27730 | 28.75358 | 287 ft | 7 kts | 179° |
| 2026-04-26 22:30 | 41.27678 | 28.75360 | 289 ft | 7 kts | 179° |
| 2026-04-26 22:30 | 41.27632 | 28.75352 | 291 ft | 6 kts | 210° |
| 2026-04-26 22:30 | 41.27620 | 28.75298 | 291 ft | 7 kts | 269° |
| 2026-04-26 22:30 | 41.27619 | 28.75230 | 294 ft | 6 kts | 269° |
| 2026-04-26 22:31 | 41.27619 | 28.75188 | 296 ft | 5 kts | 269° |
| 2026-04-26 22:31 | 41.27619 | 28.75102 | 298 ft | 13 kts | 270° |
| 2026-04-26 22:31 | 41.27617 | 28.74974 | 298 ft | 15 kts | 268° |
| 2026-04-26 22:31 | 41.27615 | 28.74818 | 299 ft | 17 kts | 269° |
| 2026-04-26 22:32 | 41.27613 | 28.74666 | 298 ft | 17 kts | 269° |
| 2026-04-26 22:32 | 41.27611 | 28.74504 | 298 ft | 17 kts | 269° |
| 2026-04-26 22:32 | 41.27610 | 28.74328 | 298 ft | 19 kts | 269° |
| 2026-04-26 22:32 | 41.27607 | 28.74162 | 298 ft | 18 kts | 269° |
| 2026-04-26 22:33 | 41.27605 | 28.73992 | 298 ft | 19 kts | 269° |
| 2026-04-26 22:33 | 41.27603 | 28.73760 | 298 ft | 6 kts | 262° |
| 2026-04-26 22:33 | 41.27569 | 28.73740 | 299 ft | 5 kts | 183° |
| 2026-04-26 22:34 | 41.27555 | 28.73740 | 299 ft | 1 kts | 179° |